createdAt,value
2019-05-21T00:01:46.433Z,16.82
2019-05-21T00:04:27.923Z,16.76
2019-05-21T00:06:47.653Z,16.73
2019-05-21T00:09:17.418Z,16.70
2019-05-21T00:11:47.315Z,16.64
2019-05-21T00:14:17.528Z,16.61
2019-05-21T00:16:47.961Z,16.57
2019-05-21T00:19:18.064Z,16.55
2019-05-21T00:21:48.214Z,16.55
2019-05-21T00:24:18.942Z,16.54
2019-05-21T00:26:48.538Z,16.52
2019-05-21T00:30:13.649Z,16.51
2019-05-21T00:33:37.868Z,16.40
2019-05-21T00:37:04.022Z,16.27
2019-05-21T00:40:28.636Z,16.17
2019-05-21T00:42:58.481Z,16.09
2019-05-21T00:45:27.854Z,16.12
2019-05-21T00:47:57.243Z,16.19
2019-05-21T00:50:26.640Z,16.24
2019-05-21T00:52:56.013Z,16.24
2019-05-21T00:55:25.393Z,16.29
2019-05-21T00:57:54.783Z,16.33
2019-05-21T01:00:24.157Z,16.34
2019-05-21T01:02:53.541Z,16.37
2019-05-21T01:05:22.992Z,16.36
2019-05-21T01:07:52.383Z,16.38
2019-05-21T01:10:22.066Z,16.35
2019-05-21T01:12:52.214Z,16.34
2019-05-21T01:15:22.360Z,16.33
2019-05-21T01:17:52.453Z,16.32
2019-05-21T01:20:22.696Z,16.30
2019-05-21T01:22:52.820Z,16.28
2019-05-21T01:25:23.532Z,16.27
2019-05-21T01:27:53.330Z,16.27
2019-05-21T01:30:23.441Z,16.27
2019-05-21T01:32:53.660Z,16.25
2019-05-21T01:35:23.877Z,16.25
2019-05-21T01:37:54.415Z,16.23
2019-05-21T01:40:24.620Z,16.23
2019-05-21T01:42:54.961Z,16.20
2019-05-21T01:45:25.064Z,16.20
2019-05-21T01:47:55.573Z,16.18
2019-05-21T01:50:25.476Z,16.13
2019-05-21T01:52:55.929Z,16.12
2019-05-21T01:55:25.576Z,16.11
2019-05-21T01:57:55.006Z,16.11
2019-05-21T02:00:24.378Z,16.10
2019-05-21T02:02:53.781Z,16.09
2019-05-21T02:05:32.475Z,16.10
2019-05-21T02:07:54.581Z,16.09
2019-05-21T02:10:23.965Z,16.07
2019-05-21T02:12:53.584Z,16.06
2019-05-21T02:15:22.988Z,16.05
2019-05-21T02:17:52.350Z,16.02
2019-05-21T02:20:22.190Z,16.02
2019-05-21T02:22:52.301Z,16.00
2019-05-21T02:25:21.692Z,15.97
2019-05-21T02:27:51.073Z,15.94
2019-05-21T02:30:21.473Z,15.91
2019-05-21T02:32:50.836Z,15.89
2019-05-21T02:35:20.209Z,15.89
2019-05-21T02:37:49.593Z,15.93
2019-05-21T02:40:20.879Z,15.92
2019-05-21T02:42:50.314Z,15.91
2019-05-21T02:45:20.162Z,15.91
2019-05-21T02:47:49.526Z,15.90
2019-05-21T02:50:19.409Z,15.90
2019-05-21T02:52:48.848Z,15.86
2019-05-21T02:55:19.347Z,15.85
2019-05-21T02:57:48.702Z,15.86
2019-05-21T03:00:22.479Z,15.87
2019-05-21T03:02:51.861Z,15.84
2019-05-21T03:05:21.245Z,15.85
2019-05-21T03:07:50.921Z,15.86
2019-05-21T03:10:20.630Z,15.83
2019-05-21T03:12:50.007Z,15.83
2019-05-21T03:15:19.430Z,15.83
2019-05-21T03:17:48.816Z,15.82
2019-05-21T03:20:18.217Z,15.82
2019-05-21T03:22:47.583Z,15.82
2019-05-21T03:25:17.044Z,15.81
2019-05-21T03:27:46.408Z,15.79
2019-05-21T03:30:16.111Z,15.80
2019-05-21T03:32:45.487Z,15.80
2019-05-21T03:35:15.272Z,15.78
2019-05-21T03:37:44.687Z,15.80
2019-05-21T03:40:14.569Z,15.79
2019-05-21T03:42:43.965Z,15.80
2019-05-21T03:45:14.226Z,15.78
2019-05-21T03:47:43.615Z,15.78
2019-05-21T03:50:13.394Z,15.77
2019-05-21T03:52:42.725Z,15.73
2019-05-21T03:55:12.842Z,15.72
2019-05-21T03:57:42.233Z,15.69
2019-05-21T04:00:12.714Z,15.67
2019-05-21T04:02:42.163Z,15.66
2019-05-21T04:05:12.850Z,15.68
2019-05-21T04:07:42.231Z,15.68
2019-05-21T04:10:15.972Z,15.70
2019-05-21T04:12:46.990Z,15.69
2019-05-21T04:15:20.461Z,15.66
2019-05-21T04:18:00.754Z,15.70
2019-05-21T04:20:30.127Z,15.65
2019-05-21T04:22:59.528Z,15.66
2019-05-21T04:25:28.895Z,15.68
2019-05-21T04:27:58.288Z,15.69
2019-05-21T04:30:27.657Z,15.70
2019-05-21T04:32:57.050Z,15.67
2019-05-21T04:35:26.420Z,15.67
2019-05-21T04:37:55.811Z,15.65
2019-05-21T04:40:25.317Z,15.63
2019-05-21T04:42:54.706Z,15.63
2019-05-21T04:45:24.084Z,15.61
2019-05-21T04:47:53.509Z,15.60
2019-05-21T04:50:22.874Z,15.59
2019-05-21T04:52:52.552Z,15.60
2019-05-21T04:55:21.928Z,15.59
2019-05-21T04:57:51.337Z,15.61
2019-05-21T05:00:20.783Z,15.60
2019-05-21T05:02:50.161Z,15.61
2019-05-21T05:05:19.605Z,15.60
2019-05-21T05:07:49.008Z,15.61
2019-05-21T05:10:18.716Z,15.59
2019-05-21T05:12:48.083Z,15.59
2019-05-21T05:15:17.591Z,15.57
2019-05-21T05:17:47.247Z,15.57
2019-05-21T05:20:17.373Z,15.58
2019-05-21T05:22:46.759Z,15.59
2019-05-21T05:25:16.355Z,15.59
2019-05-21T05:27:45.985Z,15.60
2019-05-21T05:30:16.508Z,15.61
2019-05-21T05:32:45.884Z,15.61
2019-05-21T05:35:15.766Z,15.62
2019-05-21T05:37:48.595Z,15.61
2019-05-21T05:40:16.860Z,15.60
2019-05-21T05:42:46.307Z,15.61
2019-05-21T05:45:16.399Z,15.62
2019-05-21T05:47:46.023Z,15.61
2019-05-21T05:50:17.192Z,15.60
2019-05-21T05:52:46.864Z,15.59
2019-05-21T05:55:16.403Z,15.60
2019-05-21T05:57:45.817Z,15.58
2019-05-21T06:00:16.404Z,15.57
2019-05-21T06:02:45.778Z,15.57
2019-05-21T06:05:15.773Z,15.55
2019-05-21T06:07:58.613Z,15.55
2019-05-21T06:10:17.017Z,15.54
2019-05-21T06:12:46.391Z,15.54
2019-05-21T06:15:16.088Z,15.54
2019-05-21T06:17:45.459Z,15.54
2019-05-21T06:20:15.459Z,15.54
2019-05-21T06:22:44.847Z,15.55
2019-05-21T06:25:14.563Z,15.56
2019-05-21T06:27:44.168Z,15.56
2019-05-21T06:30:13.878Z,15.58
2019-05-21T06:32:43.247Z,15.59
2019-05-21T06:35:14.088Z,15.63
2019-05-21T06:37:43.467Z,15.62
2019-05-21T06:40:13.464Z,15.63
2019-05-21T06:42:42.833Z,15.63
2019-05-21T06:45:12.877Z,15.64
2019-05-21T06:47:42.305Z,15.63
2019-05-21T06:50:13.743Z,15.64
2019-05-21T06:52:43.215Z,15.63
2019-05-21T06:55:12.657Z,15.63
2019-05-21T06:57:42.053Z,15.64
2019-05-21T07:00:11.759Z,15.66
2019-05-21T07:02:41.133Z,15.69
2019-05-21T07:05:10.812Z,15.70
2019-05-21T07:07:40.213Z,15.73
2019-05-21T07:10:09.836Z,15.74
2019-05-21T07:12:39.189Z,15.74
2019-05-21T07:15:09.308Z,15.73
2019-05-21T07:17:38.725Z,15.73
2019-05-21T07:20:10.606Z,15.74
2019-05-21T07:22:40.325Z,15.74
2019-05-21T07:25:09.827Z,15.75
2019-05-21T07:27:39.447Z,15.77
2019-05-21T07:30:09.859Z,15.78
2019-05-21T07:32:39.589Z,15.79
2019-05-21T07:35:09.438Z,15.81
2019-05-21T07:37:38.795Z,15.83
2019-05-21T07:40:09.569Z,15.83
2019-05-21T07:42:39.110Z,15.81
2019-05-21T07:45:09.223Z,15.81
2019-05-21T07:47:38.607Z,15.78
2019-05-21T07:50:08.488Z,15.79
2019-05-21T07:52:37.869Z,15.79
2019-05-21T07:55:07.680Z,15.79
2019-05-21T07:57:37.138Z,15.77
2019-05-21T08:00:07.828Z,15.76
2019-05-21T08:02:37.284Z,15.76
2019-05-21T08:05:07.694Z,15.75
2019-05-21T08:07:37.069Z,15.75
2019-05-21T08:10:08.821Z,15.73
2019-05-21T08:12:39.839Z,15.73
2019-05-21T08:15:09.917Z,15.73
2019-05-21T08:17:39.292Z,15.73
2019-05-21T08:20:14.883Z,15.73
2019-05-21T08:22:44.272Z,15.73
2019-05-21T08:25:14.965Z,15.73
2019-05-21T08:27:44.835Z,15.73
2019-05-21T08:30:15.188Z,15.76
2019-05-21T08:32:44.714Z,15.81
2019-05-21T08:35:14.166Z,15.83
2019-05-21T08:37:43.574Z,15.85
2019-05-21T08:40:13.642Z,15.87
2019-05-21T08:42:43.037Z,15.88
2019-05-21T08:45:13.366Z,15.89
2019-05-21T08:47:42.744Z,15.89
2019-05-21T08:50:16.412Z,15.92
2019-05-21T08:52:45.815Z,15.93
2019-05-21T08:55:15.608Z,15.94
2019-05-21T08:57:45.010Z,15.94
2019-05-21T09:00:17.440Z,15.93
2019-05-21T09:02:46.954Z,15.93
2019-05-21T09:05:16.841Z,15.90
2019-05-21T09:07:52.635Z,15.88
2019-05-21T09:10:17.694Z,15.86
2019-05-21T09:12:47.153Z,15.83
2019-05-21T09:15:17.254Z,15.82
2019-05-21T09:17:46.642Z,15.82
2019-05-21T09:20:16.818Z,15.82
2019-05-21T09:22:46.334Z,15.81
2019-05-21T09:25:16.731Z,15.80
2019-05-21T09:27:46.184Z,15.77
2019-05-21T09:30:18.328Z,15.75
2019-05-21T09:32:47.693Z,15.73
2019-05-21T09:35:17.429Z,15.71
2019-05-21T09:37:46.805Z,15.71
2019-05-21T09:40:21.679Z,15.69
2019-05-21T09:42:51.054Z,15.66
2019-05-21T09:45:20.917Z,15.66
2019-05-21T09:47:50.544Z,15.67
2019-05-21T09:50:21.561Z,15.66
2019-05-21T09:52:51.333Z,15.67
2019-05-21T09:55:20.761Z,15.69
2019-05-21T09:57:57.198Z,15.68
2019-05-21T10:00:35.995Z,15.67
2019-05-21T10:03:19.235Z,15.67
2019-05-21T10:05:49.194Z,15.66
2019-05-21T10:08:18.566Z,15.69
2019-05-21T10:10:47.946Z,15.70
2019-05-21T10:13:17.335Z,15.72
2019-05-21T10:15:46.716Z,15.76
2019-05-21T10:18:16.098Z,15.81
2019-05-21T10:20:45.532Z,15.87
2019-05-21T10:23:15.192Z,15.89
2019-05-21T10:25:44.585Z,15.88
2019-05-21T10:28:13.942Z,15.88
2019-05-21T10:30:43.570Z,15.90
2019-05-21T10:33:12.949Z,15.90
2019-05-21T10:35:42.406Z,15.90
2019-05-21T10:38:11.853Z,15.91
2019-05-21T10:40:41.241Z,15.92
2019-05-21T10:43:10.608Z,15.94
2019-05-21T10:45:40.326Z,15.96
2019-05-21T10:48:09.708Z,15.98
2019-05-21T10:50:39.080Z,16.00
2019-05-21T10:53:08.522Z,15.98
2019-05-21T10:55:37.972Z,15.98
2019-05-21T10:58:07.387Z,16.00
2019-05-21T11:00:36.917Z,16.02
2019-05-21T11:03:07.986Z,16.03
2019-05-21T11:05:41.939Z,16.04
2019-05-21T11:08:26.784Z,16.08
2019-05-21T11:10:42.482Z,16.10
2019-05-21T11:13:12.000Z,16.13
2019-05-21T11:15:41.396Z,16.18
2019-05-21T11:18:11.889Z,16.20
2019-05-21T11:20:42.950Z,16.21
2019-05-21T11:23:12.347Z,16.21
2019-05-21T11:25:41.753Z,16.23
2019-05-21T11:28:11.103Z,16.26
2019-05-21T11:30:40.479Z,16.25
2019-05-21T11:33:10.036Z,16.26
2019-05-21T11:35:39.405Z,16.28
2019-05-21T11:38:08.799Z,16.28
2019-05-21T11:40:38.188Z,16.29
2019-05-21T11:43:07.651Z,16.29
2019-05-21T11:45:37.007Z,16.29
2019-05-21T11:48:06.398Z,16.33
2019-05-21T11:50:35.853Z,16.36
2019-05-21T11:53:05.905Z,16.41
2019-05-21T11:55:35.927Z,16.45
2019-05-21T11:58:05.998Z,16.48
2019-05-21T12:00:36.202Z,16.51
2019-05-21T12:03:06.294Z,16.54
2019-05-21T12:05:36.603Z,16.58
2019-05-21T12:08:06.591Z,16.61
2019-05-21T12:10:36.670Z,16.61
2019-05-21T12:13:06.980Z,16.62
2019-05-21T12:15:37.004Z,16.61
2019-05-21T12:18:07.566Z,16.61
2019-05-21T12:20:37.822Z,16.61
2019-05-21T12:23:07.538Z,16.61
2019-05-21T12:25:37.580Z,16.60
2019-05-21T12:28:11.137Z,16.60
2019-05-21T12:30:38.926Z,16.58
2019-05-21T12:33:08.301Z,16.60
2019-05-21T12:35:38.122Z,16.59
2019-05-21T12:38:08.217Z,16.63
2019-05-21T12:40:38.496Z,16.62
2019-05-21T12:43:08.558Z,16.62
2019-05-21T12:45:38.433Z,16.62
2019-05-21T12:48:08.726Z,16.62
2019-05-21T12:50:39.047Z,16.63
2019-05-21T12:53:09.292Z,16.65
2019-05-21T12:55:39.246Z,16.64
2019-05-21T12:58:09.141Z,16.62
2019-05-21T13:00:39.654Z,16.62
2019-05-21T13:03:09.218Z,16.59
2019-05-21T13:05:39.325Z,16.60
2019-05-21T13:08:09.593Z,16.61
2019-05-21T13:10:39.443Z,16.60
2019-05-21T13:13:09.452Z,16.61
2019-05-21T13:15:39.386Z,16.61
2019-05-21T13:18:09.471Z,16.61
2019-05-21T13:20:39.578Z,16.63
2019-05-21T13:23:09.829Z,16.64
2019-05-21T13:25:40.369Z,16.65
2019-05-21T13:28:10.620Z,16.69
2019-05-21T13:30:40.663Z,16.72
2019-05-21T13:33:11.022Z,16.76
2019-05-21T13:35:41.546Z,16.83
2019-05-21T13:38:13.562Z,16.89
2019-05-21T13:40:43.868Z,16.93
2019-05-21T13:43:13.249Z,16.99
2019-05-21T13:45:42.775Z,17.03
2019-05-21T13:48:13.048Z,17.09
2019-05-21T13:50:43.375Z,17.16
2019-05-21T13:53:13.804Z,17.19
2019-05-21T13:55:44.336Z,17.24
2019-05-21T13:58:14.354Z,17.29
2019-05-21T14:00:46.077Z,17.33
2019-05-21T14:03:15.676Z,17.34
2019-05-21T14:05:45.191Z,17.37
2019-05-21T14:08:15.587Z,17.40
2019-05-21T14:10:46.375Z,17.44
2019-05-21T14:13:16.477Z,17.47
2019-05-21T14:15:46.941Z,17.49
2019-05-21T14:18:17.171Z,17.53
2019-05-21T14:20:47.426Z,17.54
2019-05-21T14:23:17.639Z,17.57
2019-05-21T14:25:48.025Z,17.59
2019-05-21T14:28:18.218Z,17.60
2019-05-21T14:30:48.545Z,17.62
2019-05-21T14:33:18.809Z,17.64
2019-05-21T14:35:49.263Z,17.65
2019-05-21T14:38:19.188Z,17.69
2019-05-21T14:40:50.010Z,17.72
2019-05-21T14:43:19.931Z,17.75
2019-05-21T14:45:50.219Z,17.78
2019-05-21T14:48:20.514Z,17.82
2019-05-21T14:50:51.102Z,17.86
2019-05-21T14:53:21.082Z,17.88
2019-05-21T14:55:51.533Z,17.90
2019-05-21T14:58:21.590Z,17.90
2019-05-21T15:00:51.917Z,17.89
2019-05-21T15:03:25.302Z,17.86
2019-05-21T15:05:53.280Z,17.84
2019-05-21T15:08:22.657Z,17.82
2019-05-21T15:10:52.919Z,17.81
2019-05-21T15:13:23.188Z,17.79
2019-05-21T15:15:53.449Z,17.75
2019-05-21T15:18:23.758Z,17.73
2019-05-21T15:20:55.873Z,17.70
2019-05-21T15:23:25.343Z,17.65
2019-05-21T15:25:54.724Z,17.62
2019-05-21T15:28:24.935Z,17.61
2019-05-21T15:30:55.158Z,17.61
2019-05-21T15:33:25.385Z,17.62
2019-05-21T15:35:55.862Z,17.62
2019-05-21T15:38:25.802Z,17.62
2019-05-21T15:41:09.459Z,17.64
2019-05-21T15:43:27.452Z,17.68
2019-05-21T15:45:56.908Z,17.73
2019-05-21T15:48:27.256Z,17.80
2019-05-21T15:50:57.192Z,17.91
2019-05-21T15:53:27.357Z,18.02
2019-05-21T15:55:57.704Z,18.14
2019-05-21T15:58:28.022Z,18.23
2019-05-21T16:00:58.153Z,18.34
2019-05-21T16:03:28.661Z,18.44
2019-05-21T16:05:58.937Z,18.57
2019-05-21T16:08:29.893Z,18.72
2019-05-21T16:10:59.353Z,18.88
2019-05-21T16:13:29.522Z,19.03
2019-05-21T16:15:59.868Z,19.15
2019-05-21T16:18:30.081Z,19.25
2019-05-21T16:21:00.495Z,19.35
2019-05-21T16:23:30.757Z,19.44
2019-05-21T16:26:01.231Z,19.52
2019-05-21T16:28:31.446Z,19.62
2019-05-21T16:31:01.339Z,19.71
2019-05-21T16:33:31.866Z,19.80
2019-05-21T16:36:02.141Z,19.89
2019-05-21T16:38:32.494Z,19.99
2019-05-21T16:41:02.701Z,20.09
2019-05-21T16:43:33.236Z,20.19
2019-05-21T16:46:03.671Z,20.26
2019-05-21T16:48:33.908Z,20.32
2019-05-21T16:51:03.983Z,20.35
2019-05-21T16:53:34.210Z,20.38
2019-05-21T16:56:04.739Z,20.39
2019-05-21T16:58:34.805Z,20.42
2019-05-21T17:01:06.812Z,20.42
2019-05-21T17:03:36.672Z,20.42
2019-05-21T17:06:06.146Z,20.40
2019-05-21T17:08:35.955Z,20.37
2019-05-21T17:11:06.193Z,20.35
2019-05-21T17:13:36.663Z,20.35
2019-05-21T17:16:06.789Z,20.35
2019-05-21T17:18:37.228Z,20.35
2019-05-21T17:21:07.327Z,20.35
2019-05-21T17:23:37.637Z,20.34
2019-05-21T17:26:07.960Z,20.33
2019-05-21T17:28:38.056Z,20.29
2019-05-21T17:31:08.241Z,20.25
2019-05-21T17:33:38.530Z,20.19
2019-05-21T17:36:08.802Z,20.15
2019-05-21T17:38:39.333Z,20.10
2019-05-21T17:41:09.266Z,20.03
2019-05-21T17:43:39.845Z,19.96
2019-05-21T17:46:09.675Z,19.92
2019-05-21T17:48:40.012Z,19.87
2019-05-21T17:51:10.466Z,19.82
2019-05-21T17:53:40.754Z,19.79
2019-05-21T17:56:10.990Z,19.76
2019-05-21T17:58:41.195Z,19.75
2019-05-21T18:01:13.101Z,19.72
2019-05-21T18:03:42.988Z,19.70
2019-05-21T18:06:13.684Z,19.69
2019-05-21T18:08:43.228Z,19.66
2019-05-21T18:11:14.751Z,19.63
2019-05-21T18:13:44.231Z,19.59
2019-05-21T18:16:14.016Z,19.56
2019-05-21T18:18:44.026Z,19.53
2019-05-21T18:21:13.676Z,19.49
2019-05-21T18:23:43.515Z,19.45
2019-05-21T18:26:13.575Z,19.41
2019-05-21T18:28:43.848Z,19.33
2019-05-21T18:31:14.271Z,19.28
2019-05-21T18:33:44.849Z,19.23
2019-05-21T18:36:14.761Z,19.17
2019-05-21T18:38:45.557Z,19.10
2019-05-21T18:41:15.998Z,19.02
2019-05-21T18:43:46.075Z,18.97
2019-05-21T18:46:16.200Z,18.90
2019-05-21T18:48:46.755Z,18.84
2019-05-21T18:51:16.651Z,18.79
2019-05-21T18:53:46.874Z,18.73
2019-05-21T18:56:17.196Z,18.68
2019-05-21T18:58:47.340Z,18.64
2019-05-21T19:01:17.538Z,18.58
2019-05-21T19:03:47.876Z,18.54
2019-05-21T19:06:18.013Z,18.48
2019-05-21T19:08:48.096Z,18.42
2019-05-21T19:11:18.345Z,18.35
2019-05-21T19:13:48.578Z,18.29
2019-05-21T19:16:18.797Z,18.26
2019-05-21T19:18:48.515Z,18.21
2019-05-21T19:21:18.905Z,18.14
2019-05-21T19:23:49.096Z,18.09
2019-05-21T19:26:19.147Z,18.04
2019-05-21T19:28:49.273Z,17.98
2019-05-21T19:31:19.372Z,17.93
2019-05-21T19:33:49.473Z,17.85
2019-05-21T19:36:19.387Z,17.80
2019-05-21T19:38:49.403Z,17.73
2019-05-21T19:41:19.531Z,17.67
2019-05-21T19:43:49.524Z,17.61
2019-05-21T19:46:19.564Z,17.57
2019-05-21T19:48:49.950Z,17.50
2019-05-21T19:51:19.796Z,17.48
2019-05-21T19:53:50.126Z,17.43
2019-05-21T19:56:20.330Z,17.38
2019-05-21T19:58:50.368Z,17.34
2019-05-21T20:01:21.227Z,17.31
2019-05-21T20:03:50.942Z,17.29
2019-05-21T20:06:22.785Z,17.26
2019-05-21T20:08:52.166Z,17.25
2019-05-21T20:11:21.610Z,17.25
2019-05-21T20:13:51.381Z,17.22
2019-05-21T20:16:22.314Z,17.23
2019-05-21T20:18:52.140Z,17.22
2019-05-21T20:21:23.253Z,17.20
2019-05-21T20:23:53.247Z,17.22
2019-05-21T20:26:24.705Z,17.21
2019-05-21T20:28:54.294Z,17.21
2019-05-21T20:31:23.958Z,17.21
2019-05-21T20:33:53.884Z,17.20
2019-05-21T20:36:24.036Z,17.21
2019-05-21T20:38:54.300Z,17.20
2019-05-21T20:41:24.595Z,17.19
2019-05-21T20:43:58.936Z,17.20
2019-05-21T20:46:28.278Z,17.20
2019-05-21T20:48:59.029Z,17.19
2019-05-21T20:51:28.691Z,17.21
2019-05-21T20:53:58.086Z,17.22
2019-05-21T20:56:28.345Z,17.24
2019-05-21T20:58:57.694Z,17.25
2019-05-21T21:01:28.118Z,17.25
2019-05-21T21:03:58.338Z,17.25
2019-05-21T21:06:35.246Z,17.26
2019-05-21T21:08:59.681Z,17.24
2019-05-21T21:11:29.215Z,17.25
2019-05-21T21:14:15.310Z,17.25
2019-05-21T21:16:31.539Z,17.26
2019-05-21T21:19:01.017Z,17.26
2019-05-21T21:21:30.839Z,17.26
2019-05-21T21:24:00.774Z,17.25
2019-05-21T21:26:31.408Z,17.25
2019-05-21T21:29:20.195Z,17.25
2019-05-21T21:31:49.647Z,17.23
2019-05-21T21:34:19.200Z,17.21
2019-05-21T21:36:53.180Z,17.19
2019-05-21T21:39:21.415Z,17.16
2019-05-21T21:41:51.092Z,17.12
2019-05-21T21:44:33.432Z,17.09
2019-05-21T21:46:53.384Z,17.07
2019-05-21T21:49:24.889Z,17.05
2019-05-21T21:51:54.329Z,17.05
2019-05-21T21:54:23.722Z,17.03
2019-05-21T21:56:53.164Z,17.01
2019-05-21T21:59:22.643Z,17.00
2019-05-21T22:01:56.691Z,16.97
2019-05-21T22:04:32.125Z,16.93
2019-05-21T22:07:03.567Z,16.89
2019-05-21T22:09:33.509Z,16.88
2019-05-21T22:12:05.218Z,16.87
2019-05-21T22:14:49.814Z,16.85
2019-05-21T22:17:09.593Z,16.83
2019-05-21T22:19:40.089Z,16.82
2019-05-21T22:22:10.585Z,16.82
2019-05-21T22:24:40.427Z,16.81
2019-05-21T22:27:10.475Z,16.82
2019-05-21T22:29:40.162Z,16.81
2019-05-21T22:32:09.681Z,16.82
2019-05-21T22:34:39.140Z,16.82
2019-05-21T22:37:10.963Z,16.81
2019-05-21T22:39:42.135Z,16.82
2019-05-21T22:42:11.580Z,16.80
2019-05-21T22:44:41.059Z,16.82
2019-05-21T22:47:12.144Z,16.84
2019-05-21T22:49:41.598Z,16.83
2019-05-21T22:52:11.053Z,16.81
2019-05-21T22:54:40.440Z,16.79
2019-05-21T22:57:10.170Z,16.78
2019-05-21T22:59:40.082Z,16.74
2019-05-21T23:02:11.935Z,16.73
2019-05-21T23:04:41.309Z,16.71
2019-05-21T23:07:11.000Z,16.68
2019-05-21T23:09:40.718Z,16.66
2019-05-21T23:12:30.578Z,16.63
2019-05-21T23:15:00.213Z,16.60
2019-05-21T23:17:29.929Z,16.57
2019-05-21T23:19:59.990Z,16.54
2019-05-21T23:22:31.791Z,16.51
2019-05-21T23:25:02.485Z,16.46
2019-05-21T23:27:32.210Z,16.43
2019-05-21T23:30:02.592Z,16.41
2019-05-21T23:32:32.614Z,16.40
2019-05-21T23:35:02.317Z,16.35
2019-05-21T23:37:33.358Z,16.33
2019-05-21T23:40:04.187Z,16.29
2019-05-21T23:42:33.838Z,16.26
2019-05-21T23:45:05.804Z,16.25
2019-05-21T23:47:35.751Z,16.22
2019-05-21T23:50:09.582Z,16.20
2019-05-21T23:52:39.131Z,16.18
2019-05-21T23:55:09.544Z,16.14
2019-05-21T23:57:40.485Z,16.14
